Time;durP1;ratioP1;P1;durP2;ratioP2;P2;SDS_P1;SDS_P2;PMS_P1;PMS_P2;Temp;Humidity;BMP_temperature;BMP_pressure;BME280_temperature;BME280_humidity;BME280_pressure;Samples;Min_cycle;Max_cycle;Signal;HPM_P1;HPM_P2
2021/05/29 00:01:30;;;;;;;3.53;1.73;;;17.60;76.20;;;;;;5099452;28;20232;-73
2021/05/29 00:03:58;;;;;;;2.17;1.90;;;17.60;76.30;;;;;;5086786;28;20233;-72
2021/05/29 00:06:25;;;;;;;2.50;1.87;;;17.50;76.40;;;;;;5087252;28;20208;-73
2021/05/29 00:08:52;;;;;;;2.30;2.10;;;17.50;76.60;;;;;;5104169;28;20216;-72
2021/05/29 00:11:19;;;;;;;5.10;2.10;;;17.50;76.80;;;;;;5106645;28;20688;-72
2021/05/29 00:13:47;;;;;;;2.87;2.00;;;17.50;76.80;;;;;;5084297;28;20209;-72
2021/05/29 00:16:15;;;;;;;2.40;2.23;;;17.40;77.00;;;;;;5104442;28;20215;-72
2021/05/29 00:18:42;;;;;;;2.40;2.20;;;17.40;77.40;;;;;;5106451;28;20212;-72
2021/05/29 00:21:10;;;;;;;2.43;2.00;;;17.30;77.70;;;;;;5104206;28;20274;-72
2021/05/29 00:23:37;;;;;;;2.40;2.10;;;17.30;78.10;;;;;;5106322;28;20249;-72
2021/05/29 00:26:04;;;;;;;3.37;2.03;;;17.20;78.40;;;;;;5099613;28;20236;-72
2021/05/29 00:28:32;;;;;;;3.87;2.30;;;17.20;78.70;;;;;;5086817;28;20209;-72
2021/05/29 00:30:59;;;;;;;2.77;2.30;;;17.10;78.80;;;;;;5104154;28;20273;-72
2021/05/29 00:33:27;;;;;;;3.47;2.17;;;17.10;79.40;;;;;;5104791;28;20639;-72
2021/05/29 00:35:55;;;;;;;2.67;2.30;;;17.00;78.80;;;;;;5083434;28;20701;-73
2021/05/29 00:38:22;;;;;;;2.13;1.93;;;16.90;79.00;;;;;;5106114;28;20223;-73
2021/05/29 00:40:50;;;;;;;4.20;2.30;;;16.80;79.00;;;;;;5101413;28;20277;-73
2021/05/29 00:43:17;;;;;;;3.07;2.77;;;16.80;79.20;;;;;;5103373;28;20314;-72
2021/05/29 00:45:44;;;;;;;3.17;2.83;;;16.70;79.50;;;;;;5097979;28;20305;-72
2021/05/29 00:48:11;;;;;;;3.00;2.70;;;16.60;79.60;;;;;;5103264;28;20299;-72
2021/05/29 00:50:47;;;;;;;2.87;2.60;;;16.60;80.00;;;;;;5105220;28;20261;-72
2021/05/29 00:53:16;;;;;;;3.70;3.10;;;16.50;80.10;;;;;;5098414;28;20240;-72
2021/05/29 00:55:44;;;;;;;3.23;2.93;;;16.50;80.30;;;;;;5083664;28;20219;-72
2021/05/29 00:58:12;;;;;;;4.90;2.70;;;16.50;80.40;;;;;;5088036;28;20208;-73
2021/05/29 01:00:39;;;;;;;3.73;2.80;;;16.50;80.50;;;;;;5084055;28;20201;-72
2021/05/29 01:03:06;;;;;;;3.20;2.90;;;16.50;80.70;;;;;;5098644;28;20305;-72
2021/05/29 01:05:33;;;;;;;4.27;3.13;;;16.40;81.00;;;;;;5104646;28;20204;-72
2021/05/29 01:08:02;;;;;;;3.47;3.17;;;16.40;81.20;;;;;;5102506;28;20213;-72
2021/05/29 01:10:29;;;;;;;4.83;3.20;;;16.30;81.30;;;;;;5105671;28;20310;-72
2021/05/29 01:12:59;;;;;;;4.90;3.27;;;16.20;81.30;;;;;;5102229;28;20549;-72
2021/05/29 01:15:33;;;;;;;3.33;2.90;;;16.20;81.50;;;;;;5086072;28;20201;-72
2021/05/29 01:18:05;;;;;;;4.37;3.20;;;16.20;81.80;;;;;;5102679;28;20241;-72
2021/05/29 01:20:33;;;;;;;3.13;2.73;;;16.20;82.10;;;;;;5082944;28;20212;-72
2021/05/29 01:23:00;;;;;;;4.17;3.13;;;16.10;82.30;;;;;;5089125;28;20801;-72
2021/05/29 01:25:35;;;;;;;5.77;3.20;;;16.10;82.60;;;;;;5105455;28;20707;-73
2021/05/29 01:28:30;;;;;;;5.27;3.73;;;16.00;82.80;;;;;;5101759;28;20208;-71
2021/05/29 01:31:02;;;;;;;5.23;4.37;;;16.00;83.00;;;;;;5087203;28;20641;-71
2021/05/29 01:33:32;;;;;;;5.77;3.63;;;15.90;83.10;;;;;;5105304;28;20240;-71
2021/05/29 01:36:05;;;;;;;4.03;3.60;;;15.90;83.30;;;;;;5100793;28;20304;-71
2021/05/29 01:38:33;;;;;;;3.73;3.43;;;15.90;83.50;;;;;;5085142;28;20208;-71
2021/05/29 01:41:04;;;;;;;8.47;4.30;;;15.90;83.80;;;;;;5103463;28;20318;-71
2021/05/29 01:43:35;;;;;;;4.73;4.03;;;15.90;83.90;;;;;;5084352;28;20319;-72
2021/05/29 01:46:04;;;;;;;6.00;4.17;;;15.80;84.00;;;;;;5104896;28;20231;-71
2021/05/29 01:48:37;;;;;;;8.30;4.40;;;15.80;84.10;;;;;;5100918;28;20563;-71
2021/05/29 01:51:05;;;;;;;4.70;4.30;;;15.70;84.30;;;;;;5093894;28;20546;-71
2021/05/29 01:53:33;;;;;;;4.77;4.10;;;15.70;84.40;;;;;;5104114;28;20281;-71
2021/05/29 01:56:01;;;;;;;5.03;3.80;;;15.70;84.50;;;;;;5091454;28;20537;-71
2021/05/29 01:58:29;;;;;;;5.67;3.83;;;15.60;84.60;;;;;;5104807;28;20212;-71
2021/05/29 02:00:56;;;;;;;5.60;3.77;;;15.60;84.60;;;;;;5083339;28;20525;-71
2021/05/29 02:03:24;;;;;;;3.80;3.50;;;15.50;84.60;;;;;;5104822;28;20221;-71
2021/05/29 02:05:51;;;;;;;4.23;3.83;;;15.50;84.60;;;;;;5089637;28;20216;-71
2021/05/29 02:08:19;;;;;;;7.70;5.17;;;15.50;84.60;;;;;;5102421;28;20777;-71
2021/05/29 02:10:47;;;;;;;7.50;3.57;;;15.40;84.60;;;;;;5101633;28;20208;-71
2021/05/29 02:13:30;;;;;;;4.83;4.07;;;15.40;84.90;;;;;;5087234;28;20668;-71
2021/05/29 02:15:58;;;;;;;5.63;3.73;;;15.40;85.40;;;;;;5098768;28;20208;-71
2021/05/29 02:18:25;;;;;;;4.10;3.40;;;15.40;85.30;;;;;;5096879;28;20205;-71
2021/05/29 02:21:02;;;;;;;6.07;3.97;;;15.40;85.40;;;;;;5100881;28;20291;-71
2021/05/29 02:23:35;;;;;;;4.53;3.63;;;15.40;85.50;;;;;;5084856;28;20718;-71
2021/05/29 02:26:12;;;;;;;4.40;3.80;;;15.40;85.50;;;;;;5103008;28;20209;-71
2021/05/29 02:28:42;;;;;;;3.87;3.40;;;15.40;85.60;;;;;;5100592;28;20205;-72
2021/05/29 02:31:10;;;;;;;4.33;3.93;;;15.40;85.70;;;;;;5080210;28;20225;-71
2021/05/29 02:33:37;;;;;;;4.70;4.10;;;15.40;85.70;;;;;;5104417;28;20242;-71
2021/05/29 02:36:06;;;;;;;3.80;3.43;;;15.40;85.90;;;;;;5102523;28;20295;-71
2021/05/29 02:38:34;;;;;;;3.80;3.47;;;15.40;85.80;;;;;;5087097;28;20212;-73
2021/05/29 02:41:04;;;;;;;3.77;3.37;;;15.40;85.60;;;;;;5105125;28;20244;-74
2021/05/29 02:43:32;;;;;;;4.30;3.90;;;15.30;85.60;;;;;;5089144;28;20228;-74
2021/05/29 02:45:59;;;;;;;7.93;3.73;;;15.20;85.90;;;;;;5088405;28;20611;-74
2021/05/29 02:48:26;;;;;;;4.47;4.07;;;15.20;86.30;;;;;;5107026;28;20244;-74
2021/05/29 02:50:53;;;;;;;4.00;3.63;;;15.20;86.60;;;;;;5105890;28;20212;-74
2021/05/29 02:53:20;;;;;;;7.53;4.03;;;15.10;86.70;;;;;;5105497;28;20206;-74
2021/05/29 02:55:47;;;;;;;6.03;4.57;;;15.10;87.10;;;;;;5106506;28;20219;-74
2021/05/29 02:58:15;;;;;;;8.07;4.20;;;15.10;87.30;;;;;;5105484;28;20654;-74
2021/05/29 03:00:45;;;;;;;6.63;4.60;;;15.10;87.30;;;;;;5106053;28;20292;-74
2021/05/29 03:03:13;;;;;;;6.50;4.20;;;15.00;87.40;;;;;;5104436;28;20237;-73
2021/05/29 03:05:47;;;;;;;4.80;4.37;;;15.00;87.70;;;;;;5085495;28;20667;-73
2021/05/29 03:08:15;;;;;;;4.53;3.83;;;15.00;88.00;;;;;;5089821;28;20238;-73
2021/05/29 03:10:46;;;;;;;5.40;3.97;;;15.00;88.00;;;;;;5099798;28;20229;-73
2021/05/29 03:13:14;;;;;;;4.30;3.90;;;15.00;87.90;;;;;;5091617;28;20262;-74
2021/05/29 03:15:42;;;;;;;5.23;4.17;;;15.00;88.00;;;;;;5107482;28;20208;-74
2021/05/29 03:18:10;;;;;;;4.73;4.27;;;15.00;88.10;;;;;;5104059;28;20216;-75
2021/05/29 03:20:37;;;;;;;5.50;4.30;;;15.10;88.40;;;;;;5107121;28;20220;-74
2021/05/29 03:23:06;;;;;;;5.13;4.63;;;15.10;88.60;;;;;;5104136;28;20209;-74
2021/05/29 03:25:34;;;;;;;5.10;4.20;;;15.10;88.60;;;;;;5106734;28;20242;-73
2021/05/29 03:28:02;;;;;;;4.47;4.07;;;15.00;88.60;;;;;;5086622;28;20213;-73
2021/05/29 03:30:30;;;;;;;5.87;4.30;;;15.00;88.70;;;;;;5106054;28;20208;-74
2021/05/29 03:32:58;;;;;;;4.17;3.83;;;15.00;88.90;;;;;;5104718;28;20259;-71
2021/05/29 03:35:26;;;;;;;4.47;4.03;;;15.00;89.10;;;;;;5081809;28;20699;-71
2021/05/29 03:37:54;;;;;;;4.93;4.53;;;14.90;89.20;;;;;;5089569;28;20224;-71
2021/05/29 03:40:21;;;;;;;4.77;4.37;;;14.90;89.30;;;;;;5105175;28;20386;-71
2021/05/29 03:42:49;;;;;;;8.37;4.57;;;15.00;89.40;;;;;;5107276;28;20628;-71
2021/05/29 03:45:18;;;;;;;5.43;4.33;;;14.90;89.40;;;;;;5106917;28;20228;-71
2021/05/29 03:47:46;;;;;;;6.13;4.40;;;15.00;89.50;;;;;;5104668;28;20240;-71
2021/05/29 03:50:16;;;;;;;4.57;4.17;;;15.00;89.60;;;;;;5102226;28;20202;-71
2021/05/29 03:52:44;;;;;;;5.27;3.93;;;15.00;90.00;;;;;;5107193;28;20599;-71
2021/05/29 03:55:14;;;;;;;5.67;4.80;;;15.00;89.40;;;;;;5103760;28;20600;-71
2021/05/29 03:57:41;;;;;;;8.37;5.17;;;15.00;89.30;;;;;;5085456;28;20635;-71
2021/05/29 04:00:10;;;;;;;6.43;4.63;;;15.10;89.40;;;;;;5106612;28;20615;-71
2021/05/29 04:02:37;;;;;;;7.23;4.60;;;15.10;89.40;;;;;;5098914;28;20217;-71
2021/05/29 04:05:06;;;;;;;5.53;4.60;;;15.10;89.50;;;;;;5094348;28;20239;-72
2021/05/29 04:07:33;;;;;;;4.87;4.43;;;15.20;89.50;;;;;;5103393;28;20280;-71
2021/05/29 04:10:01;;;;;;;4.77;4.37;;;15.20;89.40;;;;;;5103177;28;20209;-71
2021/05/29 04:12:31;;;;;;;5.47;4.63;;;15.30;89.30;;;;;;5101134;28;20207;-71
2021/05/29 04:14:59;;;;;;;9.03;4.90;;;15.40;89.20;;;;;;5079790;28;20238;-71
2021/05/29 04:17:27;;;;;;;6.23;5.27;;;15.40;89.00;;;;;;5103344;28;20219;-71
2021/05/29 04:19:54;;;;;;;8.17;4.50;;;15.50;88.80;;;;;;5102394;28;20248;-71
2021/05/29 04:22:21;;;;;;;4.60;4.20;;;15.60;88.60;;;;;;5105523;28;20285;-71
2021/05/29 04:24:49;;;;;;;5.40;4.60;;;15.70;88.50;;;;;;5103545;28;20620;-71
2021/05/29 04:27:18;;;;;;;4.87;4.47;;;15.70;88.30;;;;;;5087253;28;20208;-72
2021/05/29 04:29:46;;;;;;;7.60;4.93;;;15.80;88.00;;;;;;5103852;28;20213;-71
2021/05/29 04:32:14;;;;;;;7.23;4.93;;;15.80;87.80;;;;;;5104531;28;20212;-71
2021/05/29 04:34:41;;;;;;;6.77;4.63;;;15.90;87.60;;;;;;5106334;28;20212;-71
2021/05/29 04:37:13;;;;;;;6.47;4.67;;;15.90;87.50;;;;;;5102080;28;20612;-71
2021/05/29 04:39:40;;;;;;;5.40;4.27;;;16.00;87.30;;;;;;5083518;28;20704;-71
2021/05/29 04:42:07;;;;;;;4.93;4.53;;;16.10;87.20;;;;;;5083526;28;20216;-71
2021/05/29 04:44:35;;;;;;;4.80;4.30;;;16.10;87.20;;;;;;5101204;28;20232;-72
2021/05/29 04:47:03;;;;;;;5.27;4.57;;;16.30;87.10;;;;;;5102862;28;20640;-71
2021/05/29 04:49:31;;;;;;;5.63;5.13;;;16.40;86.80;;;;;;5101461;28;20673;-71
2021/05/29 04:51:59;;;;;;;5.60;4.60;;;16.50;86.30;;;;;;5101926;28;20215;-71
2021/05/29 04:54:27;;;;;;;4.93;4.30;;;16.70;86.30;;;;;;5094659;28;20253;-71
2021/05/29 04:56:54;;;;;;;6.73;4.67;;;16.90;85.90;;;;;;5087309;28;20208;-71
2021/05/29 04:59:22;;;;;;;7.33;4.50;;;17.10;85.50;;;;;;5098747;28;20280;-71
2021/05/29 05:01:49;;;;;;;5.93;4.60;;;17.30;85.20;;;;;;5087114;28;20246;-71
2021/05/29 05:04:17;;;;;;;5.63;5.07;;;17.50;84.80;;;;;;5103348;28;20223;-71
2021/05/29 05:06:44;;;;;;;4.93;4.53;;;17.60;84.40;;;;;;5101339;28;20345;-72
2021/05/29 05:09:12;;;;;;;6.53;4.53;;;17.60;84.10;;;;;;5097062;28;20217;-72
2021/05/29 05:11:39;;;;;;;5.83;5.33;;;17.70;84.00;;;;;;5078067;28;20696;-71
2021/05/29 05:14:06;;;;;;;5.83;5.23;;;17.80;83.90;;;;;;5076708;28;20268;-71
2021/05/29 05:16:33;;;;;;;5.70;5.10;;;17.90;83.80;;;;;;5080006;28;20206;-72
2021/05/29 05:19:01;;;;;;;7.37;5.83;;;17.90;83.40;;;;;;5101816;28;20209;-72
2021/05/29 05:21:29;;;;;;;5.60;5.10;;;18.00;83.50;;;;;;5078283;28;20292;-72
2021/05/29 05:23:56;;;;;;;5.73;5.23;;;18.10;83.50;;;;;;5083441;28;20205;-71
2021/05/29 05:26:25;;;;;;;6.97;4.53;;;18.20;83.30;;;;;;5078237;28;20217;-71
2021/05/29 05:28:52;;;;;;;6.93;5.47;;;18.40;83.00;;;;;;5100580;28;20246;-71
2021/05/29 05:31:20;;;;;;;6.20;5.57;;;18.60;82.40;;;;;;5101934;28;20217;-72
2021/05/29 05:33:48;;;;;;;5.93;5.33;;;18.90;81.80;;;;;;5104574;28;20212;-71
2021/05/29 05:36:15;;;;;;;6.23;5.33;;;19.10;80.70;;;;;;5084956;28;20618;-71
2021/05/29 05:38:47;;;;;;;7.63;5.27;;;19.10;79.80;;;;;;5086749;28;20223;-72
2021/05/29 05:41:14;;;;;;;6.07;5.17;;;19.00;79.60;;;;;;5102864;28;20335;-72
2021/05/29 05:43:42;;;;;;;9.03;5.60;;;18.90;79.80;;;;;;5103199;28;20309;-71
2021/05/29 05:46:11;;;;;;;13.00;5.67;;;18.90;79.90;;;;;;5102953;28;20235;-71
2021/05/29 05:48:39;;;;;;;6.33;5.53;;;18.90;80.20;;;;;;5105061;28;20877;-71
2021/05/29 05:51:06;;;;;;;5.57;5.07;;;18.90;79.90;;;;;;5102749;28;20208;-72
2021/05/29 05:53:33;;;;;;;9.17;5.90;;;19.00;80.00;;;;;;5101082;28;20654;-72
2021/05/29 05:56:05;;;;;;;6.50;5.90;;;19.20;80.00;;;;;;5101596;28;20212;-72
2021/05/29 05:58:35;;;;;;;7.13;5.80;;;19.30;79.90;;;;;;5101764;28;20213;-72
2021/05/29 06:01:06;;;;;;;5.57;5.07;;;19.60;79.30;;;;;;5103823;28;20602;-72
2021/05/29 06:03:34;;;;;;;7.33;5.97;;;19.80;78.80;;;;;;5088195;28;20216;-71
2021/05/29 06:06:02;;;;;;;6.40;5.80;;;19.90;78.20;;;;;;5091007;28;20296;-71
2021/05/29 06:08:30;;;;;;;6.17;5.67;;;20.10;77.80;;;;;;5109384;28;20208;-71
2021/05/29 06:10:57;;;;;;;7.23;5.67;;;20.10;77.10;;;;;;5088143;28;20213;-71
2021/05/29 06:21:11;;;;;;;8.93;4.97;;;20.50;76.40;;;;;;5108489;28;20616;-71
2021/05/29 06:23:38;;;;;;;7.20;5.10;;;20.80;76.00;;;;;;5104787;28;20221;-71
2021/05/29 06:26:05;;;;;;;6.80;5.77;;;21.10;74.80;;;;;;5104639;28;20235;-71
2021/05/29 06:28:33;;;;;;;6.63;4.93;;;21.20;74.90;;;;;;5104732;28;20269;-71
2021/05/29 06:31:00;;;;;;;5.07;4.57;;;21.40;74.80;;;;;;5100769;28;20213;-72
2021/05/29 06:33:27;;;;;;;6.50;5.00;;;21.70;73.20;;;;;;5105066;28;20919;-72
2021/05/29 06:35:54;;;;;;;5.87;5.37;;;21.90;72.90;;;;;;5108071;28;20668;-71
2021/05/29 06:38:22;;;;;;;6.27;5.77;;;22.00;71.20;;;;;;5109513;28;20216;-72
2021/05/29 06:40:50;;;;;;;8.03;5.87;;;22.00;70.40;;;;;;5108081;28;20240;-72
2021/05/29 06:43:18;;;;;;;6.27;5.67;;;21.90;70.90;;;;;;5090570;28;20640;-72
2021/05/29 06:45:45;;;;;;;6.13;5.60;;;21.80;71.80;;;;;;5107070;28;20301;-72
2021/05/29 06:48:14;;;;;;;5.87;5.37;;;21.80;70.90;;;;;;5105190;28;20241;-72
2021/05/29 06:50:49;;;;;;;6.40;5.23;;;21.80;71.20;;;;;;5106599;28;20597;-71
2021/05/29 06:53:20;;;;;;;7.60;5.73;;;21.90;71.00;;;;;;5106531;28;20201;-71
2021/05/29 06:58:48;;;;;;;5.87;5.30;;;22.00;69.80;;;;;;5102273;28;20269;-72
2021/05/29 07:01:20;;;;;;;6.80;5.70;;;22.00;69.90;;;;;;5087318;28;20586;-72
2021/05/29 07:03:48;;;;;;;5.93;5.40;;;22.10;70.40;;;;;;5098059;28;20205;-72
2021/05/29 07:06:17;;;;;;;6.00;5.50;;;22.20;69.80;;;;;;5105885;28;20679;-71
2021/05/29 07:08:44;;;;;;;4.90;4.50;;;22.30;69.40;;;;;;5104169;28;20290;-71
2021/05/29 07:11:12;;;;;;;5.50;5.00;;;22.30;69.00;;;;;;5106240;28;20248;-71
2021/05/29 07:13:39;;;;;;;5.43;4.60;;;22.30;68.00;;;;;;5104059;28;20206;-73
2021/05/29 07:16:07;;;;;;;5.80;5.20;;;22.30;67.90;;;;;;5088778;28;20212;-74
2021/05/29 07:18:44;;;;;;;4.60;4.27;;;22.50;68.40;;;;;;5104868;28;20734;-74
2021/05/29 07:21:15;;;;;;;5.03;4.50;;;22.60;66.80;;;;;;5087258;28;20216;-74
2021/05/29 07:23:44;;;;;;;7.10;5.17;;;22.70;67.70;;;;;;5103293;28;20246;-74
2021/05/29 07:26:11;;;;;;;5.67;4.97;;;22.80;67.60;;;;;;5107174;28;20232;-74
2021/05/29 07:28:39;;;;;;;4.73;4.33;;;23.10;67.10;;;;;;5103282;28;20212;-74
2021/05/29 07:31:06;;;;;;;5.47;4.83;;;23.30;66.00;;;;;;5103693;28;20252;-74
2021/05/29 07:33:34;;;;;;;4.90;4.50;;;23.30;65.40;;;;;;5106311;28;20243;-74
2021/05/29 07:36:01;;;;;;;4.73;4.33;;;23.30;64.70;;;;;;5103119;28;20217;-74
2021/05/29 07:38:29;;;;;;;5.00;4.10;;;23.10;64.60;;;;;;5099300;28;20579;-73
2021/05/29 07:40:57;;;;;;;6.07;4.90;;;23.20;64.90;;;;;;5099072;28;20732;-74
2021/05/29 07:43:25;;;;;;;5.07;4.53;;;23.40;65.60;;;;;;5099422;28;20212;-74
2021/05/29 07:45:53;;;;;;;4.97;4.57;;;23.70;64.20;;;;;;5106473;28;20255;-74
2021/05/29 07:48:20;;;;;;;4.60;4.20;;;23.80;63.20;;;;;;5103402;28;20383;-74
2021/05/29 07:50:57;;;;;;;15.53;11.10;;;23.80;62.40;;;;;;5106274;28;20216;-74
2021/05/29 07:53:28;;;;;;;5.27;4.20;;;23.90;63.30;;;;;;5104974;28;20236;-74
2021/05/29 07:55:57;;;;;;;3.83;3.53;;;24.10;63.30;;;;;;5086557;28;20233;-74
2021/05/29 07:58:27;;;;;;;3.90;3.60;;;24.30;61.30;;;;;;5103801;28;20311;-74
2021/05/29 08:00:55;;;;;;;4.07;3.27;;;24.40;59.10;;;;;;5084736;28;20273;-74
2021/05/29 08:03:25;;;;;;;3.37;3.07;;;24.30;58.90;;;;;;5103255;28;20216;-74
2021/05/29 08:05:54;;;;;;;3.87;3.00;;;24.30;59.80;;;;;;5102348;28;20243;-74
2021/05/29 08:08:23;;;;;;;2.80;2.60;;;24.30;58.40;;;;;;5098702;28;20213;-73
2021/05/29 08:10:53;;;;;;;3.40;2.43;;;24.20;59.70;;;;;;5106289;28;20299;-74
2021/05/29 08:13:20;;;;;;;15.97;14.30;;;24.30;60.40;;;;;;5088919;28;20208;-74
2021/05/29 08:15:48;;;;;;;4.90;3.13;;;24.30;57.50;;;;;;5106012;28;20205;-74
2021/05/29 08:18:17;;;;;;;4.03;2.77;;;24.20;58.80;;;;;;5103460;28;20213;-74
2021/05/29 08:20:49;;;;;;;2.80;2.20;;;24.20;58.60;;;;;;5105171;28;20212;-74
2021/05/29 08:23:17;;;;;;;2.73;2.23;;;24.20;57.80;;;;;;5084045;28;20221;-74
2021/05/29 08:25:46;;;;;;;2.43;2.23;;;24.30;57.60;;;;;;5103915;28;20329;-75
2021/05/29 08:28:14;;;;;;;3.03;1.90;;;24.40;56.70;;;;;;5104145;28;20220;-74
2021/05/29 08:30:41;;;;;;;2.80;2.07;;;24.30;56.80;;;;;;5103152;28;20217;-74
2021/05/29 08:33:09;;;;;;;3.53;2.20;;;24.20;57.30;;;;;;5104858;28;20529;-73
2021/05/29 08:35:36;;;;;;;2.90;1.80;;;24.10;57.60;;;;;;5103076;28;20212;-74
2021/05/29 08:38:04;;;;;;;1.90;1.80;;;24.10;57.00;;;;;;5105199;28;20277;-74
2021/05/29 08:40:32;;;;;;;2.10;1.90;;;24.10;56.50;;;;;;5102594;28;20245;-74
2021/05/29 08:43:00;;;;;;;1.90;1.70;;;24.20;57.60;;;;;;5105055;28;20273;-74
2021/05/29 08:45:28;;;;;;;1.50;1.40;;;24.40;58.10;;;;;;5102444;28;20241;-74
2021/05/29 08:47:57;;;;;;;2.97;1.53;;;24.60;55.70;;;;;;5087744;28;20270;-73
2021/05/29 08:50:25;;;;;;;2.63;2.20;;;24.60;55.60;;;;;;5097887;28;20227;-74
2021/05/29 08:52:54;;;;;;;4.00;2.37;;;24.60;55.10;;;;;;5096405;28;20209;-74
2021/05/29 08:55:21;;;;;;;2.17;1.97;;;24.60;55.60;;;;;;5097965;28;20213;-74
2021/05/29 08:57:49;;;;;;;2.97;2.53;;;24.80;55.40;;;;;;5101670;28;20215;-74
2021/05/29 09:00:21;;;;;;;2.13;1.93;;;25.00;54.00;;;;;;5101999;28;20219;-74
2021/05/29 09:03:03;;;;;;;2.37;1.60;;;25.30;53.50;;;;;;5086697;28;20659;-74
2021/05/29 09:05:50;;;;;;;5.40;1.53;;;25.50;55.00;;;;;;5104464;28;20232;-74
2021/05/29 09:08:20;;;;;;;2.17;1.30;;;25.60;53.70;;;;;;5101104;28;20248;-74
2021/05/29 09:10:53;;;;;;;2.90;1.23;;;25.60;53.80;;;;;;5087404;28;20209;-74
2021/05/29 09:13:25;;;;;;;1.80;1.50;;;25.60;51.80;;;;;;5084627;28;20230;-74
2021/05/29 09:15:58;;;;;;;1.30;1.20;;;25.50;51.70;;;;;;5081973;28;20208;-74
2021/05/29 09:18:45;;;;;;;1.53;1.43;;;25.30;52.20;;;;;;5078251;28;20678;-74
2021/05/29 09:21:34;;;;;;;3.17;1.37;;;25.20;51.20;;;;;;5105299;28;20246;-74
2021/05/29 09:24:08;;;;;;;2.63;1.23;;;25.00;52.60;;;;;;5102029;28;20212;-73
2021/05/29 09:26:55;;;;;;;1.93;1.27;;;25.10;53.10;;;;;;5101435;28;20232;-74
2021/05/29 09:29:25;;;;;;;1.50;1.40;;;25.20;52.90;;;;;;5101779;28;20208;-74
2021/05/29 09:31:52;;;;;;;2.57;1.13;;;25.20;52.30;;;;;;5102384;28;20291;-74
2021/05/29 09:34:43;;;;;;;0.90;0.90;;;25.10;53.10;;;;;;5085647;28;20217;-71
2021/05/29 09:37:27;;;;;;;0.90;0.87;;;25.20;55.10;;;;;;5101364;28;20213;-71
2021/05/29 09:40:00;;;;;;;0.80;0.80;;;25.30;50.80;;;;;;5066860;28;20303;-71
2021/05/29 09:42:30;;;;;;;1.77;1.00;;;25.40;51.80;;;;;;5102626;28;20304;-74
2021/05/29 09:45:15;;;;;;;5.90;1.13;;;25.40;51.20;;;;;;5099756;28;20208;-74
2021/05/29 09:47:43;;;;;;;1.30;1.20;;;25.20;52.40;;;;;;5083886;28;20212;-74
2021/05/29 09:50:11;;;;;;;4.30;1.00;;;25.10;53.70;;;;;;5105170;28;20240;-74
2021/05/29 09:52:39;;;;;;;2.17;0.90;;;24.90;52.90;;;;;;5087568;28;20256;-73
2021/05/29 09:55:13;;;;;;;2.70;1.23;;;24.90;53.10;;;;;;5101361;28;20217;-74
2021/05/29 09:57:58;;;;;;;1.50;1.40;;;25.00;53.40;;;;;;5101406;28;20208;-74
2021/05/29 10:00:40;;;;;;;3.37;1.23;;;25.20;53.20;;;;;;5079770;28;20296;-74
2021/05/29 10:03:07;;;;;;;1.33;1.23;;;25.40;52.30;;;;;;5101370;28;20217;-74
2021/05/29 10:05:37;;;;;;;1.00;0.90;;;25.50;50.90;;;;;;5102916;28;20228;-74
2021/05/29 10:08:13;;;;;;;1.03;0.70;;;25.50;51.50;;;;;;5104496;28;20204;-73
2021/05/29 10:10:41;;;;;;;0.80;0.70;;;25.50;52.70;;;;;;5104996;28;20212;-73
2021/05/29 10:13:09;;;;;;;1.87;0.93;;;25.60;49.80;;;;;;5100647;28;20208;-73
2021/05/29 10:15:36;;;;;;;0.70;0.70;;;25.60;51.10;;;;;;5079521;28;20770;-74
2021/05/29 10:18:06;;;;;;;5.47;0.90;;;25.90;51.80;;;;;;5097532;28;20209;-73
2021/05/29 10:20:35;;;;;;;0.80;0.67;;;26.10;51.00;;;;;;5104743;28;20263;-73
2021/05/29 10:23:05;;;;;;;0.97;0.77;;;26.20;50.40;;;;;;5101934;28;20245;-73
2021/05/29 10:25:34;;;;;;;0.70;0.70;;;26.20;51.00;;;;;;5105009;28;20213;-73
2021/05/29 10:28:02;;;;;;;0.83;0.83;;;26.40;51.30;;;;;;5081522;28;20234;-73
2021/05/29 10:30:32;;;;;;;2.00;0.60;;;26.50;48.20;;;;;;5105115;28;20613;-73
2021/05/29 10:33:16;;;;;;;0.80;0.60;;;26.60;48.30;;;;;;5103448;28;20210;-73
2021/05/29 10:35:44;;;;;;;1.47;0.90;;;26.60;50.80;;;;;;5097961;28;20217;-73
2021/05/29 10:38:12;;;;;;;1.10;0.80;;;26.80;50.40;;;;;;5104310;28;20252;-73
2021/05/29 10:40:48;;;;;;;2.07;0.70;;;26.80;48.90;;;;;;5083882;28;20244;-73
2021/05/29 10:43:21;;;;;;;2.87;1.00;;;26.80;48.40;;;;;;5085067;28;20227;-73
2021/05/29 10:45:51;;;;;;;1.03;0.70;;;26.80;49.70;;;;;;5100837;28;20273;-73
2021/05/29 10:48:19;;;;;;;2.97;1.00;;;26.80;47.60;;;;;;5107727;28;20239;-73
2021/05/29 10:51:00;;;;;;;0.60;0.60;;;26.90;46.80;;;;;;5107801;28;20246;-73
2021/05/29 10:53:41;;;;;;;0.60;0.57;;;26.80;48.40;;;;;;5103457;28;20201;-73
2021/05/29 10:56:21;;;;;;;0.70;0.70;;;26.80;47.90;;;;;;5104881;28;20221;-74
2021/05/29 10:58:54;;;;;;;0.93;0.93;;;26.90;48.00;;;;;;5102497;28;20213;-74
2021/05/29 11:01:23;;;;;;;2.30;0.87;;;27.00;48.30;;;;;;5108358;28;20248;-74
2021/05/29 11:04:29;;;;;;;0.93;0.83;;;27.20;47.50;;;;;;5106088;28;20544;-73
2021/05/29 11:07:18;;;;;;;1.13;0.80;;;27.40;48.70;;;;;;5025010;28;20237;-73
2021/05/29 11:09:48;;;;;;;1.20;1.10;;;27.60;47.70;;;;;;5024776;28;20222;-73
2021/05/29 11:12:16;;;;;;;1.70;0.97;;;27.90;46.20;;;;;;5006318;28;20655;-73
2021/05/29 11:14:52;;;;;;;2.57;0.90;;;27.70;46.00;;;;;;5006953;28;20210;-73
2021/05/29 11:17:24;;;;;;;1.77;0.90;;;27.60;47.60;;;;;;5021894;28;20212;-73
2021/05/29 11:20:20;;;;;;;1.10;0.97;;;27.50;46.00;;;;;;5024405;28;20223;-73
2021/05/29 11:22:50;;;;;;;0.80;0.80;;;27.50;47.50;;;;;;5006302;28;20219;-73
2021/05/29 11:25:19;;;;;;;3.33;0.90;;;27.40;46.30;;;;;;5023867;28;20218;-73
2021/05/29 11:27:49;;;;;;;2.83;1.10;;;27.40;46.80;;;;;;5022765;28;20240;-74
2021/05/29 11:30:26;;;;;;;1.77;1.13;;;27.40;48.30;;;;;;5022849;28;20207;-73
2021/05/29 11:35:48;;;;;;;2.27;1.00;;;27.70;48.70;;;;;;5021141;28;20222;-73
2021/05/29 11:41:15;;;;;;;2.23;0.83;;;27.90;46.50;;;;;;5100688;28;20265;-74
2021/05/29 11:43:55;;;;;;;3.63;1.00;;;27.90;46.10;;;;;;5096503;28;20625;-73
2021/05/29 11:46:28;;;;;;;0.90;0.90;;;27.80;46.60;;;;;;5103328;28;20295;-73
2021/05/29 11:48:56;;;;;;;1.43;1.00;;;28.00;46.10;;;;;;5104618;28;20629;-73
2021/05/29 11:51:25;;;;;;;2.00;1.00;;;28.10;46.60;;;;;;5106185;28;20285;-73
2021/05/29 11:54:08;;;;;;;2.53;1.23;;;28.10;43.90;;;;;;5103853;28;20240;-74
2021/05/29 11:56:39;;;;;;;1.87;1.13;;;28.10;44.80;;;;;;5100723;28;20758;-73
2021/05/29 11:59:09;;;;;;;1.67;0.90;;;28.20;45.10;;;;;;5104552;28;20213;-73
2021/05/29 12:01:39;;;;;;;1.33;1.23;;;28.30;44.90;;;;;;5104576;28;20212;-73
2021/05/29 12:04:15;;;;;;;3.53;1.03;;;28.40;44.10;;;;;;5103084;28;20296;-73
2021/05/29 12:06:52;;;;;;;2.33;1.00;;;28.30;44.50;;;;;;5077928;28;20306;-73
2021/05/29 12:09:24;;;;;;;4.27;1.03;;;28.20;45.10;;;;;;5081683;28;20681;-73
2021/05/29 12:11:52;;;;;;;4.93;1.10;;;28.20;45.00;;;;;;5104967;28;20206;-73
2021/05/29 12:14:25;;;;;;;1.57;1.40;;;28.30;44.60;;;;;;5079864;28;20209;-73
2021/05/29 12:16:55;;;;;;;2.80;0.90;;;28.40;45.60;;;;;;5105168;28;20292;-73
2021/05/29 12:19:38;;;;;;;19.43;5.50;;;28.50;44.60;;;;;;5106186;28;20234;-73
2021/05/29 12:22:14;;;;;;;69.00;14.17;;;28.50;44.70;;;;;;5102049;28;20241;-74
2021/05/29 12:24:47;;;;;;;4.67;1.70;;;28.50;45.00;;;;;;5085989;28;20334;-74
2021/05/29 12:27:16;;;;;;;1.30;1.20;;;28.40;45.10;;;;;;5094356;28;20232;-74
2021/05/29 12:29:45;;;;;;;56.93;15.83;;;28.40;45.80;;;;;;5098865;28;20216;-74
2021/05/29 12:32:37;;;;;;;1.23;1.13;;;28.40;44.40;;;;;;5105965;28;20640;-74
2021/05/29 12:35:32;;;;;;;2.07;1.70;;;28.40;45.10;;;;;;5100927;28;20280;-74
2021/05/29 12:38:18;;;;;;;16.10;8.00;;;28.40;46.00;;;;;;5102693;28;20211;-74
2021/05/29 12:41:08;;;;;;;9.70;2.97;;;28.50;45.80;;;;;;5102667;28;20677;-74
2021/05/29 12:43:36;;;;;;;32.33;7.57;;;28.20;45.80;;;;;;5099942;28;20296;-74
2021/05/29 12:46:05;;;;;;;46.87;11.50;;;27.90;47.00;;;;;;5103650;28;20312;-73
2021/05/29 12:48:33;;;;;;;24.13;6.03;;;27.80;47.80;;;;;;5084403;28;20630;-74
2021/05/29 12:51:08;;;;;;;16.07;4.63;;;27.70;47.90;;;;;;5105969;28;20296;-74
2021/05/29 12:53:38;;;;;;;7.77;1.80;;;27.60;48.80;;;;;;5101821;28;20212;-74
2021/05/29 12:56:15;;;;;;;19.33;3.13;;;27.70;49.20;;;;;;5102527;28;20560;-74
2021/05/29 12:59:04;;;;;;;9.20;2.33;;;27.80;48.00;;;;;;5098258;28;20219;-74
2021/05/29 13:01:43;;;;;;;9.20;1.50;;;27.90;47.50;;;;;;5084300;28;20681;-74
2021/05/29 13:09:58;;;;;;;1.33;1.13;;;27.90;46.50;;;;;;5097218;28;20576;-73
2021/05/29 13:12:25;;;;;;;7.03;2.33;;;27.90;46.40;;;;;;5097692;28;20292;-74
2021/05/29 13:14:53;;;;;;;17.20;4.20;;;27.90;45.50;;;;;;5103455;28;20616;-73
2021/05/29 13:17:29;;;;;;;13.70;2.23;;;27.80;45.40;;;;;;5088068;28;20221;-73
2021/05/29 13:20:00;;;;;;;0.70;0.70;;;27.80;45.40;;;;;;5102910;28;20633;-73
2021/05/29 13:22:35;;;;;;;1.83;1.43;;;27.80;45.20;;;;;;5104680;28;20259;-73
2021/05/29 13:25:15;;;;;;;3.63;0.97;;;27.80;45.80;;;;;;5080673;28;20223;-73